Arctic Bay — 9HTD8 — position and weather

sailwx.info

Track history (hours):
 
Tides and Currents Weather Stations Pressure Air Temp Water Temp Dewpoint Dewpoint Depression Visibility Wind Speed Wind Dir Waves Ship Positions

Arctic Bay

Last reported at 2015-Mar-26 13:08 UTC. Time now 2015-Mar-28 05:16 UTC.
Position N 60°04' E 027°25'.

Length 182 m; draft 8.4 m.

Type: Tanker. MMSI: 256396000.

Date/timePositionNaut miles runAvg speedWind from/ knotsBaromVisibWave heightAir tempDewpointWater temp
2015-Mar-26 13:08N 60°04' E 027°25'1213.3
2015-Mar-26 12:13N 59°58' E 027°04'812.8
2015-Mar-26 11:33N 59°59' E 026°47'1512.9
2015-Mar-26 10:23N 59°57' E 026°17'5513.4
2015-Mar-26 06:19N 59°44' E 024°31'1013.4
2015-Mar-26 05:34N 59°42' E 024°12'1413.4
2015-Mar-26 04:32N 59°37' E 023°46'1413.4
2015-Mar-26 03:30N 59°32' E 023°21'33713.3
2015-Mar-25 02:05N 55°43' E 015°40'1114.0
2015-Mar-25 01:17N 55°38' E 015°22'1014.1
2015-Mar-25 00:34N 55°33' E 015°07'1414.1
2015-Mar-24 23:33N 55°26' E 014°45'1414.1
2015-Mar-24 22:33N 55°16' E 014°27'1313.1
2015-Mar-24 21:33N 55°10' E 014°06'1414.2
2015-Mar-24 20:33N 55°11' E 013°42'1414.0
2015-Mar-24 19:33N 55°13' E 013°17'1413.9
2015-Mar-24 18:33N 55°14' E 012°53'1111.5
2015-Mar-24 17:34N 55°23' E 012°39'1211.6
2015-Mar-24 16:33N 55°34' E 012°42'1110.8
2015-Mar-24 15:33N 55°45' E 012°42'0 0.4
2015-Mar-24 14:33N 55°45' E 012°43'0 0.0
2015-Mar-24 13:33N 55°45' E 012°43'0 0.0
2015-Mar-24 12:33N 55°45' E 012°43'0 0.0
2015-Mar-24 11:33N 55°45' E 012°43'0 0.0
2015-Mar-24 10:33N 55°45' E 012°43'0 0.0
2015-Mar-24 09:33N 55°45' E 012°43'1 1.0
2015-Mar-24 08:34N 55°45' E 012°41'1212.1
2015-Mar-24 07:34N 55°57' E 012°40'1212.4
2015-Mar-24 06:33N 56°08' E 012°29'1110.5
2015-Mar-24 05:30N 56°14' E 012°12'1111.1
2015-Mar-24 04:28N 56°24' E 012°00'1111.8
2015-Mar-24 03:30N 56°35' E 011°56'1112.1
2015-Mar-24 02:33N 56°46' E 011°51'1212.1
2015-Mar-24 01:33N 56°57' E 011°44'1211.7
2015-Mar-24 00:33N 57°08' E 011°37'1211.5
2015-Mar-23 23:33N 57°19' E 011°30'1111.4
2015-Mar-23 22:33N 57°29' E 011°20'1211.9
2015-Mar-23 21:33N 57°38' E 011°04'1212.2
2015-Mar-23 20:33N 57°46' E 010°48'18911.8
2015-Mar-23 04:31N 55°38' E 006°35'1412.3
2015-Mar-23 03:22N 55°25' E 006°24'8612.5
2015-Mar-22 20:32N 54°12' E 005°06'1212.5
2015-Mar-22 19:33N 54°01' E 004°57'1312.4
2015-Mar-22 18:30N 53°48' E 004°53'1212.5
2015-Mar-22 17:32N 53°36' E 004°49'1312.4
2015-Mar-22 16:30N 53°25' E 004°41'1211.8
2015-Mar-22 15:32N 53°14' E 004°34'5610.6
2015-Mar-22 10:10N 52°28' E 003°39'6811.2
2015-Mar-22 04:07N 51°38' E 002°25'712.6
2015-Mar-22 03:33N 51°33' E 002°18'1212.5
2015-Mar-22 02:33N 51°22' E 002°07'1211.5
2015-Mar-22 01:33N 51°12' E 001°59'1312.8
2015-Mar-22 00:33N 51°05' E 001°42'1212.3
2015-Mar-21 23:34N 50°56' E 001°28'49 9.8
2015-Mar-21 18:31N 50°25' E 000°28'242 9.2
2015-Mar-20 16:14N 50°41' W 005°53'1211.9
2015-Mar-20 15:14N 50°51' W 005°45'912.8
2015-Mar-20 14:34N 50°59' W 005°40'  
Track history (hours):
 
Tides and Currents Weather Stations Pressure Air Temp Water Temp Dewpoint Dewpoint Depression Visibility Wind Speed Wind Dir Waves Ship Positions

Arctic Bay

Last reported at 2015-Mar-26 13:08 UTC. Time now 2015-Mar-28 05:16 UTC.
Position N 60°04' E 027°25'.

Length 182 m; draft 8.4 m.

Type: Tanker. MMSI: 256396000.

Date/timePositionNaut miles runAvg speedWind from/ knotsBaromVisibWave heightAir tempDewpointWater temp
2015-Mar-26 13:08N 60°04' E 027°25'1213.3
2015-Mar-26 12:13N 59°58' E 027°04'812.8
2015-Mar-26 11:33N 59°59' E 026°47'1512.9
2015-Mar-26 10:23N 59°57' E 026°17'5513.4
2015-Mar-26 06:19N 59°44' E 024°31'1013.4
2015-Mar-26 05:34N 59°42' E 024°12'1413.4
2015-Mar-26 04:32N 59°37' E 023°46'1413.4
2015-Mar-26 03:30N 59°32' E 023°21'33713.3
2015-Mar-25 02:05N 55°43' E 015°40'1114.0
2015-Mar-25 01:17N 55°38' E 015°22'1014.1
2015-Mar-25 00:34N 55°33' E 015°07'1414.1
2015-Mar-24 23:33N 55°26' E 014°45'1414.1
2015-Mar-24 22:33N 55°16' E 014°27'1313.1
2015-Mar-24 21:33N 55°10' E 014°06'1414.2
2015-Mar-24 20:33N 55°11' E 013°42'1414.0
2015-Mar-24 19:33N 55°13' E 013°17'1413.9
2015-Mar-24 18:33N 55°14' E 012°53'1111.5
2015-Mar-24 17:34N 55°23' E 012°39'1211.6
2015-Mar-24 16:33N 55°34' E 012°42'1110.8
2015-Mar-24 15:33N 55°45' E 012°42'0 0.4
2015-Mar-24 14:33N 55°45' E 012°43'0 0.0
2015-Mar-24 13:33N 55°45' E 012°43'0 0.0
2015-Mar-24 12:33N 55°45' E 012°43'0 0.0
2015-Mar-24 11:33N 55°45' E 012°43'0 0.0
2015-Mar-24 10:33N 55°45' E 012°43'0 0.0
2015-Mar-24 09:33N 55°45' E 012°43'1 1.0
2015-Mar-24 08:34N 55°45' E 012°41'1212.1
2015-Mar-24 07:34N 55°57' E 012°40'1212.4
2015-Mar-24 06:33N 56°08' E 012°29'1110.5
2015-Mar-24 05:30N 56°14' E 012°12'1111.1
2015-Mar-24 04:28N 56°24' E 012°00'1111.8
2015-Mar-24 03:30N 56°35' E 011°56'1112.1
2015-Mar-24 02:33N 56°46' E 011°51'1212.1
2015-Mar-24 01:33N 56°57' E 011°44'1211.7
2015-Mar-24 00:33N 57°08' E 011°37'1211.5
2015-Mar-23 23:33N 57°19' E 011°30'1111.4
2015-Mar-23 22:33N 57°29' E 011°20'1211.9
2015-Mar-23 21:33N 57°38' E 011°04'1212.2
2015-Mar-23 20:33N 57°46' E 010°48'18911.8
2015-Mar-23 04:31N 55°38' E 006°35'1412.3
2015-Mar-23 03:22N 55°25' E 006°24'8612.5
2015-Mar-22 20:32N 54°12' E 005°06'1212.5
2015-Mar-22 19:33N 54°01' E 004°57'1312.4
2015-Mar-22 18:30N 53°48' E 004°53'1212.5
2015-Mar-22 17:32N 53°36' E 004°49'1312.4
2015-Mar-22 16:30N 53°25' E 004°41'1211.8
2015-Mar-22 15:32N 53°14' E 004°34'5610.6
2015-Mar-22 10:10N 52°28' E 003°39'6811.2
2015-Mar-22 04:07N 51°38' E 002°25'712.6
2015-Mar-22 03:33N 51°33' E 002°18'1212.5
2015-Mar-22 02:33N 51°22' E 002°07'1211.5
2015-Mar-22 01:33N 51°12' E 001°59'1312.8
2015-Mar-22 00:33N 51°05' E 001°42'1212.3
2015-Mar-21 23:34N 50°56' E 001°28'49 9.8
2015-Mar-21 18:31N 50°25' E 000°28'242 9.2
2015-Mar-20 16:14N 50°41' W 005°53'1211.9
2015-Mar-20 15:14N 50°51' W 005°45'912.8
2015-Mar-20 14:34N 50°59' W 005°40'  

Dump ship's entire track history